Helena, GA

17:42 EST le 27 février 2017 (GMT -0500)
SW of Chauncey | | Change Station

Alt. 367 ft 32.08 °N, 83.10 °W | Updated 24 seconds ago

Couvert
Couvert
71.5 ° F
Paraît 76 ° F
N
0.0
Vent Variable Vent de Nord

Aujourd'hui
Haut(e) -- | Bas -- ° F
--% Risque de précip.
Hier
Haut(e) -- | Bas -- ° F
Precip. -- pouce
Pression 30.25 pouce
Visibilité 10.0 Miles terrestres
Nuages Nuageux 7000 ft
Couvert 10000 ft
indice de chaleur 76 ° F
Point de rosée 58 ° F
Humidité 63%
Précipitations 0.00 pouce
Profondeur de la couche neigeuse Non disponible.
7:00 AM 6:28 PM
Nouvelle lune, 2% visible
METAR KEZM 272235Z AUTO 00000KT 10SM BKN070 OVC100 23/07 A3025 RMK AO2 T02280066
Pression 30.25 pouce
Visibilité 10.0 Miles terrestres
Nuages Nuageux 7000 ft
Couvert 10000 ft
indice de chaleur 76 ° F
Point de rosée 58 ° F
Humidité 63%
Précipitations 0.00 pouce
Profondeur de la couche neigeuse Non disponible.
7:00 AM 6:28 PM
Nouvelle lune, 2% visible
METAR KEZM 272235Z AUTO 00000KT 10SM BKN070 OVC100 23/07 A3025 RMK AO2 T02280066

Get Your Daily Forecast Email!

Thanks for signing up!

Be on the lookout for a verification email in your inbox.

You'll start receiving the daily forecast at 8 AM.

×

10-Day Weather Forecast

Almanac

Astronomie

Feb. 27, 2017 Lever Coucher
Temps réel
Crépuscule civil
Crépuscule nautique
Crépuscule astronomique
Lune
Durée de lumière visible
Longueur du jour
Tomorrow will be .
, % of the Moon is Illuminated

Extrêmes aujourd'hui

State Highs State Lows

Community

WunderPhotos

Upload Photos

1,962,540 Photos téléchargées !

WunderBlog® & News

Nearby

Qualité de l'air

  Qualité de l'air Indice de la qualité de l'air Polluant
Not available.

Épaisseur de neige

Station Depth Altitude

Activité sismique

Ville Distance Mag. Time & Date
Minimum magnitude displayed is 2.5.

Températures des eaux côtières

Lieu Température

Stations

Stations météo à proximité

Emplacement de la station Température Refroidissement éolien Point de rosée Humidité Vent Precip. Alt. Mise à jour Type
                   

Watches & Warnings

There are currently no watches in effect.